Time;durP1;ratioP1;P1;durP2;ratioP2;P2;SDS_P1;SDS_P2;PMS_P1;PMS_P2;Temp;Humidity;BMP_temperature;BMP_pressure;BME280_temperature;BME280_humidity;BME280_pressure;Samples;Min_cycle;Max_cycle;Signal;HPM_P1;HPM_P2
2023/11/19 00:00:28;;;;;;;6.57;3.60;;;4.90;99.90;;;;;;4262142;27;20464;-79
2023/11/19 00:02:30;;;;;;;7.23;4.03;;;4.90;99.90;;;;;;4258660;27;20436;-79
2023/11/19 00:04:35;;;;;;;7.13;4.20;;;4.90;99.90;;;;;;4258644;27;20502;-78
2023/11/19 00:06:37;;;;;;;10.07;3.40;;;4.90;99.90;;;;;;4251485;27;20483;-79
2023/11/19 00:08:39;;;;;;;4.87;3.10;;;4.90;99.90;;;;;;4259628;27;20421;-78
2023/11/19 00:10:41;;;;;;;4.83;2.97;;;5.30;99.90;;;;;;4254388;27;20442;-79
2023/11/19 00:12:44;;;;;;;4.47;2.60;;;4.90;99.90;;;;;;4243250;27;20475;-79
2023/11/19 00:14:46;;;;;;;4.43;2.87;;;4.90;99.90;;;;;;4252158;27;20467;-79
2023/11/19 00:16:51;;;;;;;4.10;2.67;;;5.00;99.90;;;;;;4238597;27;20489;-79
2023/11/19 00:18:53;;;;;;;5.93;3.00;;;4.90;99.90;;;;;;4244543;27;20500;-79
2023/11/19 00:20:56;;;;;;;4.17;2.57;;;4.90;99.90;;;;;;4241213;27;20954;-79
2023/11/19 00:22:58;;;;;;;6.40;2.87;;;4.90;99.90;;;;;;4221970;27;20527;-79
2023/11/19 00:25:00;;;;;;;5.57;3.10;;;4.90;99.90;;;;;;4242294;27;20461;-79
2023/11/19 00:27:02;;;;;;;3.90;2.57;;;4.90;99.90;;;;;;4240959;27;20508;-79
2023/11/19 00:29:03;;;;;;;4.17;2.50;;;4.90;99.90;;;;;;4234953;27;20995;-79
2023/11/19 00:31:05;;;;;;;4.47;2.80;;;4.90;99.90;;;;;;4238761;27;20469;-79
2023/11/19 00:33:08;;;;;;;4.43;2.30;;;4.90;99.90;;;;;;4236926;27;20946;-79
2023/11/19 00:35:11;;;;;;;4.53;2.43;;;4.90;99.90;;;;;;4239433;27;20807;-78
2023/11/19 00:37:15;;;;;;;6.27;2.80;;;4.90;99.90;;;;;;4236676;27;20479;-78
2023/11/19 00:39:16;;;;;;;3.80;2.37;;;4.90;99.90;;;;;;4226111;27;20517;-79
2023/11/19 00:41:19;;;;;;;4.43;2.10;;;4.90;99.90;;;;;;4240319;27;20440;-79
2023/11/19 00:43:22;;;;;;;3.93;2.23;;;4.90;99.90;;;;;;4234184;27;20447;-79
2023/11/19 00:45:24;;;;;;;4.07;2.23;;;4.90;99.90;;;;;;4238502;27;20441;-79
2023/11/19 00:47:25;;;;;;;2.90;2.03;;;4.90;99.90;;;;;;4241459;27;20472;-79
2023/11/19 00:49:27;;;;;;;5.73;1.87;;;4.90;99.90;;;;;;4232764;27;20442;-78
2023/11/19 00:51:31;;;;;;;3.93;2.00;;;4.80;99.90;;;;;;4233878;27;20475;-78
2023/11/19 00:53:34;;;;;;;2.30;1.60;;;4.90;99.90;;;;;;4238834;27;20883;-78
2023/11/19 00:55:36;;;;;;;2.50;1.80;;;4.80;99.90;;;;;;4235203;27;20485;-78
2023/11/19 00:57:38;;;;;;;1.77;1.53;;;4.80;99.90;;;;;;4234698;27;20438;-78
2023/11/19 00:59:42;;;;;;;2.83;1.80;;;4.80;99.90;;;;;;4235237;27;20456;-78
2023/11/19 01:01:43;;;;;;;2.27;1.63;;;4.80;99.90;;;;;;4245697;27;20440;-78
2023/11/19 01:03:45;;;;;;;3.43;1.87;;;4.80;99.90;;;;;;4237136;27;20443;-79
2023/11/19 01:05:48;;;;;;;1.90;1.40;;;4.80;99.90;;;;;;4240124;27;20288;-78
2023/11/19 01:07:52;;;;;;;2.60;1.50;;;4.80;99.90;;;;;;4242290;27;20441;-78
2023/11/19 01:09:55;;;;;;;1.87;1.10;;;4.80;99.90;;;;;;4238275;27;20446;-79
2023/11/19 01:11:58;;;;;;;2.10;1.23;;;4.80;99.90;;;;;;4233777;27;20439;-78
2023/11/19 01:14:00;;;;;;;2.37;1.30;;;4.80;99.90;;;;;;4240087;27;20440;-79
2023/11/19 01:16:02;;;;;;;3.30;1.40;;;4.80;99.90;;;;;;4237661;27;20520;-79
2023/11/19 01:18:04;;;;;;;2.07;1.60;;;4.80;99.90;;;;;;4241600;27;20477;-79
2023/11/19 01:20:08;;;;;;;2.53;1.77;;;4.80;99.90;;;;;;4243678;27;20493;-78
2023/11/19 01:22:12;;;;;;;1.80;1.30;;;4.80;99.90;;;;;;4232554;27;20449;-78
2023/11/19 01:24:14;;;;;;;2.53;1.50;;;4.80;99.90;;;;;;4240427;27;20467;-78
2023/11/19 01:26:17;;;;;;;1.70;1.27;;;4.80;99.90;;;;;;4238908;27;20447;-78
2023/11/19 01:28:19;;;;;;;2.30;1.20;;;4.80;99.90;;;;;;4237894;27;20504;-78
2023/11/19 01:30:21;;;;;;;2.87;1.50;;;4.80;99.90;;;;;;4241770;27;20959;-78
2023/11/19 01:32:24;;;;;;;1.63;1.23;;;4.80;99.90;;;;;;4244853;27;20505;-78
2023/11/19 01:34:26;;;;;;;1.50;1.30;;;4.80;99.90;;;;;;4233867;27;20496;-78
2023/11/19 01:36:28;;;;;;;5.13;2.50;;;4.90;99.90;;;;;;4238054;27;20878;-78
2023/11/19 01:38:30;;;;;;;3.90;2.00;;;4.80;99.90;;;;;;4238261;27;20461;-78
2023/11/19 01:40:32;;;;;;;1.87;1.40;;;4.80;99.90;;;;;;4246515;27;20515;-79
2023/11/19 01:42:39;;;;;;;3.27;1.50;;;4.80;99.90;;;;;;4248607;27;21195;-78
2023/11/19 01:44:40;;;;;;;1.73;1.17;;;4.80;99.90;;;;;;4251542;27;20448;-78
2023/11/19 01:46:45;;;;;;;1.70;1.30;;;4.80;99.90;;;;;;4243400;27;20880;-78
2023/11/19 01:48:47;;;;;;;2.10;1.27;;;4.80;99.90;;;;;;4247940;27;20451;-78
2023/11/19 01:50:49;;;;;;;2.40;1.63;;;4.80;99.90;;;;;;4248094;27;20440;-78
2023/11/19 01:52:52;;;;;;;1.33;1.17;;;4.90;99.90;;;;;;4250193;28;20506;-78
2023/11/19 01:54:54;;;;;;;1.90;1.20;;;4.80;99.90;;;;;;4256331;27;20451;-78
2023/11/19 01:56:58;;;;;;;3.00;1.40;;;4.80;99.90;;;;;;4250137;27;20480;-78
2023/11/19 01:59:01;;;;;;;1.30;1.10;;;4.80;99.90;;;;;;4244931;28;21040;-78
2023/11/19 02:01:05;;;;;;;1.83;1.30;;;4.80;99.90;;;;;;4247264;27;20844;-77
2023/11/19 02:03:08;;;;;;;4.47;1.30;;;4.80;99.90;;;;;;4236799;27;20447;-78
2023/11/19 02:05:10;;;;;;;1.63;1.40;;;4.80;99.90;;;;;;4239179;28;20925;-78
2023/11/19 02:07:12;;;;;;;1.70;1.20;;;4.80;99.90;;;;;;4245119;27;20568;-78
2023/11/19 02:09:14;;;;;;;2.47;1.33;;;4.80;99.90;;;;;;4233174;28;20540;-78
2023/11/19 02:11:15;;;;;;;3.03;1.53;;;4.80;99.90;;;;;;4242933;27;20449;-79
2023/11/19 02:13:17;;;;;;;2.40;1.60;;;4.70;99.90;;;;;;4242009;27;20444;-80
2023/11/19 02:15:24;;;;;;;2.20;1.53;;;4.80;99.90;;;;;;4242252;27;20449;-79
2023/11/19 02:17:32;;;;;;;4.57;1.70;;;4.70;99.90;;;;;;4236728;27;20483;-78
2023/11/19 02:19:34;;;;;;;1.93;1.40;;;4.70;99.90;;;;;;4244448;28;20437;-79
2023/11/19 02:21:36;;;;;;;1.80;1.47;;;5.10;99.90;;;;;;4242816;27;20452;-79
2023/11/19 02:23:38;;;;;;;2.07;1.40;;;4.70;99.90;;;;;;4244872;28;20536;-78
2023/11/19 02:25:40;;;;;;;4.03;1.80;;;5.20;99.90;;;;;;4245631;27;20455;-78
2023/11/19 02:27:57;;;;;;;2.73;1.70;;;4.70;99.90;;;;;;4246324;27;20500;-78
2023/11/19 02:29:59;;;;;;;2.80;1.90;;;4.70;99.90;;;;;;4247380;28;20456;-78
2023/11/19 02:32:03;;;;;;;2.23;1.70;;;4.70;99.90;;;;;;4248983;27;20436;-78
2023/11/19 02:34:05;;;;;;;2.60;1.80;;;4.70;99.90;;;;;;4252696;27;20446;-78
2023/11/19 02:36:08;;;;;;;2.30;1.60;;;4.70;99.90;;;;;;4246515;27;20508;-79
2023/11/19 02:38:10;;;;;;;2.23;1.70;;;4.70;99.90;;;;;;4248126;28;20456;-78
2023/11/19 02:40:13;;;;;;;2.40;1.70;;;4.70;99.90;;;;;;4252976;27;20433;-78
2023/11/19 02:42:15;;;;;;;3.13;1.60;;;4.70;99.90;;;;;;4251471;27;20435;-78
2023/11/19 02:44:18;;;;;;;2.87;1.80;;;4.70;99.90;;;;;;4248324;28;20439;-79
2023/11/19 02:46:20;;;;;;;2.70;1.83;;;4.70;99.90;;;;;;4249743;28;20476;-79
2023/11/19 02:48:22;;;;;;;3.33;2.00;;;4.70;99.90;;;;;;4251121;27;20443;-78
2023/11/19 02:50:25;;;;;;;2.07;1.63;;;4.80;99.90;;;;;;4247548;27;20468;-78
2023/11/19 02:52:28;;;;;;;4.53;2.00;;;4.80;99.90;;;;;;4238256;27;20454;-79
2023/11/19 02:54:29;;;;;;;2.17;1.67;;;4.80;99.90;;;;;;4247693;27;20463;-78
2023/11/19 02:56:37;;;;;;;3.23;1.90;;;4.80;99.90;;;;;;4241202;27;20467;-78
2023/11/19 02:58:39;;;;;;;3.07;1.87;;;4.80;99.90;;;;;;4245152;27;20443;-79
2023/11/19 03:00:48;;;;;;;2.73;1.90;;;4.80;99.90;;;;;;4246538;27;20941;-78
2023/11/19 03:02:58;;;;;;;4.63;1.70;;;4.80;99.90;;;;;;4237322;27;20472;-79
2023/11/19 03:05:00;;;;;;;3.97;1.83;;;4.80;99.90;;;;;;4242978;27;20518;-79
2023/11/19 03:07:02;;;;;;;2.97;1.80;;;4.80;99.90;;;;;;4236538;27;20467;-79
2023/11/19 03:09:10;;;;;;;3.03;2.00;;;4.80;99.90;;;;;;4245197;27;20459;-79
2023/11/19 03:11:12;;;;;;;2.50;1.90;;;4.90;99.90;;;;;;4252506;27;20469;-78
2023/11/19 03:13:14;;;;;;;3.07;2.00;;;5.00;99.90;;;;;;4238905;27;20456;-79
2023/11/19 03:15:17;;;;;;;3.53;1.97;;;4.90;99.90;;;;;;4239749;27;20445;-79
2023/11/19 03:17:20;;;;;;;2.60;1.90;;;4.90;99.90;;;;;;4243296;27;20490;-78
2023/11/19 03:19:22;;;;;;;2.17;1.60;;;4.90;99.90;;;;;;4218383;28;20869;-79
2023/11/19 03:21:29;;;;;;;2.93;1.90;;;4.70;99.90;;;;;;4242225;27;20477;-79
2023/11/19 03:23:31;;;;;;;3.03;2.00;;;4.90;99.90;;;;;;4238344;27;20496;-78
2023/11/19 03:25:34;;;;;;;2.33;1.60;;;4.90;99.90;;;;;;4244543;27;21477;-79
2023/11/19 03:27:36;;;;;;;2.77;2.10;;;4.90;99.90;;;;;;4234591;27;20464;-79
2023/11/19 03:29:38;;;;;;;3.73;2.17;;;5.00;99.90;;;;;;4220685;28;20454;-79
2023/11/19 03:31:43;;;;;;;2.47;1.80;;;5.00;99.90;;;;;;4226600;27;20515;-79
2023/11/19 03:33:46;;;;;;;3.07;1.60;;;5.00;99.90;;;;;;4240443;27;20491;-79
2023/11/19 03:35:48;;;;;;;3.23;1.90;;;5.00;99.90;;;;;;4242631;27;20953;-79
2023/11/19 03:37:49;;;;;;;2.57;1.63;;;5.00;99.90;;;;;;4240486;27;20493;-79
2023/11/19 03:39:51;;;;;;;3.60;1.50;;;5.10;99.90;;;;;;4243878;27;20561;-79
2023/11/19 03:41:53;;;;;;;2.10;1.77;;;5.10;99.90;;;;;;4235334;27;20477;-79
2023/11/19 03:43:55;;;;;;;3.07;1.50;;;5.10;99.90;;;;;;4239501;27;20442;-78
2023/11/19 03:45:57;;;;;;;2.10;1.50;;;5.10;99.90;;;;;;4237429;27;20448;-79
2023/11/19 03:47:59;;;;;;;2.47;1.30;;;5.20;99.90;;;;;;4241244;27;20431;-79
2023/11/19 03:50:02;;;;;;;2.17;1.67;;;5.20;99.90;;;;;;4247146;27;20444;-79
2023/11/19 03:52:05;;;;;;;2.53;1.57;;;5.20;99.90;;;;;;4242205;27;20950;-79
2023/11/19 03:54:07;;;;;;;1.80;1.57;;;5.30;99.90;;;;;;4236378;27;20964;-79
2023/11/19 03:56:09;;;;;;;1.87;1.50;;;5.30;99.90;;;;;;4231162;27;20474;-79
2023/11/19 03:58:12;;;;;;;2.97;1.60;;;5.30;99.90;;;;;;4225420;27;20497;-79
2023/11/19 04:00:14;;;;;;;3.40;1.67;;;5.30;99.90;;;;;;4240892;27;20456;-79
2023/11/19 04:02:17;;;;;;;2.03;1.50;;;5.30;99.90;;;;;;4236595;27;20979;-79
2023/11/19 04:04:19;;;;;;;2.70;1.60;;;5.40;99.90;;;;;;4234298;27;20456;-78
2023/11/19 04:06:22;;;;;;;2.77;1.80;;;5.40;99.90;;;;;;4239140;27;20456;-79
2023/11/19 04:08:24;;;;;;;4.30;1.90;;;5.40;99.90;;;;;;4243950;27;20505;-79
2023/11/19 04:10:27;;;;;;;4.53;1.70;;;5.40;99.90;;;;;;4245174;27;20500;-78
2023/11/19 04:12:31;;;;;;;1.53;1.30;;;5.40;99.90;;;;;;4245356;27;20452;-79
2023/11/19 04:14:33;;;;;;;2.13;1.47;;;5.40;99.90;;;;;;4236948;27;20441;-79
2023/11/19 04:16:35;;;;;;;1.87;1.57;;;5.50;99.90;;;;;;4238830;27;20466;-79
2023/11/19 04:18:37;;;;;;;2.93;1.47;;;5.50;99.90;;;;;;4223882;28;20494;-79
2023/11/19 04:20:39;;;;;;;3.80;1.23;;;5.50;99.90;;;;;;4243377;27;20455;-79
2023/11/19 04:22:43;;;;;;;1.83;1.27;;;5.60;99.90;;;;;;4245229;27;20937;-79
2023/11/19 04:24:45;;;;;;;2.93;1.23;;;5.60;99.90;;;;;;4241717;27;20471;-79
2023/11/19 04:26:47;;;;;;;3.63;1.20;;;5.60;99.90;;;;;;4216100;28;20815;-79
2023/11/19 04:28:49;;;;;;;2.60;1.20;;;5.60;99.90;;;;;;4227430;27;20458;-79
2023/11/19 04:30:52;;;;;;;1.93;1.10;;;5.60;99.90;;;;;;4244065;27;20452;-79
2023/11/19 04:32:54;;;;;;;2.17;1.10;;;5.60;99.90;;;;;;4230938;28;20457;-78
2023/11/19 04:34:55;;;;;;;2.10;1.10;;;5.70;99.90;;;;;;4242546;27;20836;-78
2023/11/19 04:36:58;;;;;;;1.47;0.87;;;5.70;99.90;;;;;;4240224;27;20488;-78
2023/11/19 04:39:02;;;;;;;3.00;1.17;;;5.70;99.90;;;;;;4238226;27;20787;-78
2023/11/19 04:41:05;;;;;;;1.97;0.90;;;5.70;99.90;;;;;;4240797;27;20874;-78
2023/11/19 04:43:07;;;;;;;1.73;0.90;;;5.70;99.90;;;;;;4244134;27;20861;-79
2023/11/19 04:45:10;;;;;;;1.63;1.30;;;5.80;99.90;;;;;;4245286;27;20501;-79
2023/11/19 04:47:12;;;;;;;1.63;1.03;;;5.80;99.90;;;;;;4235761;27;20466;-79
2023/11/19 04:49:14;;;;;;;1.60;0.90;;;5.80;99.90;;;;;;4235895;27;20943;-79
2023/11/19 04:51:16;;;;;;;3.97;1.10;;;5.80;99.90;;;;;;4235587;27;21159;-79
2023/11/19 04:53:17;;;;;;;1.17;0.80;;;5.90;99.90;;;;;;4240312;27;20449;-79
2023/11/19 04:55:20;;;;;;;2.33;0.90;;;5.90;99.90;;;;;;4241714;27;20460;-79
2023/11/19 04:57:22;;;;;;;1.47;0.90;;;5.90;99.90;;;;;;4240481;27;20227;-79
2023/11/19 04:59:24;;;;;;;1.13;0.73;;;5.90;99.90;;;;;;4238366;27;20484;-79
2023/11/19 05:01:26;;;;;;;0.90;0.80;;;5.90;99.90;;;;;;4239996;27;20511;-80
2023/11/19 05:03:29;;;;;;;2.67;1.00;;;5.90;99.90;;;;;;4222945;28;20450;-79
2023/11/19 05:05:30;;;;;;;3.20;0.90;;;6.00;99.90;;;;;;4239568;27;20532;-79
2023/11/19 05:07:32;;;;;;;1.00;0.70;;;6.00;99.90;;;;;;4239307;27;20458;-79
2023/11/19 05:09:34;;;;;;;2.60;0.90;;;6.00;99.90;;;;;;4243530;27;20524;-79
2023/11/19 05:11:38;;;;;;;1.60;0.90;;;6.00;99.90;;;;;;4243427;27;20534;-79
2023/11/19 05:13:40;;;;;;;1.63;0.90;;;6.00;99.90;;;;;;4240192;27;20470;-80
2023/11/19 05:15:42;;;;;;;1.03;0.87;;;6.00;99.90;;;;;;4245953;27;20278;-80
2023/11/19 05:17:43;;;;;;;1.27;0.83;;;6.00;99.90;;;;;;4243112;27;20470;-80
2023/11/19 05:19:45;;;;;;;1.33;0.90;;;6.00;99.90;;;;;;4244305;27;20863;-80
2023/11/19 05:21:46;;;;;;;1.03;0.93;;;6.00;99.90;;;;;;4239455;27;20930;-80
2023/11/19 05:23:48;;;;;;;2.53;0.90;;;6.00;99.90;;;;;;4238920;27;20445;-80
2023/11/19 05:25:50;;;;;;;1.37;0.90;;;6.10;99.90;;;;;;4246550;27;20457;-80
2023/11/19 05:27:54;;;;;;;1.43;1.07;;;6.10;99.90;;;;;;4233730;27;20551;-80
2023/11/19 05:29:56;;;;;;;1.33;0.87;;;6.20;99.90;;;;;;4239734;27;20461;-80
2023/11/19 05:31:58;;;;;;;2.20;1.00;;;6.10;99.90;;;;;;4217277;28;20508;-80
2023/11/19 05:33:59;;;;;;;2.07;1.00;;;6.10;99.90;;;;;;4235392;27;20268;-80
2023/11/19 05:36:03;;;;;;;0.80;0.80;;;6.10;99.90;;;;;;4234101;27;20541;-79
2023/11/19 05:38:04;;;;;;;6.00;1.97;;;6.10;99.90;;;;;;4236115;27;20303;-79
2023/11/19 05:40:14;;;;;;;2.03;0.90;;;6.10;99.90;;;;;;4239219;27;20454;-80
2023/11/19 05:42:16;;;;;;;1.23;1.00;;;6.20;99.90;;;;;;4233118;27;20236;-80
2023/11/19 05:44:19;;;;;;;2.70;0.70;;;6.20;99.90;;;;;;4235036;27;21154;-80
2023/11/19 05:46:21;;;;;;;1.67;0.87;;;6.20;99.90;;;;;;4244949;27;20461;-79
2023/11/19 05:48:22;;;;;;;1.83;0.90;;;6.20;99.90;;;;;;4243586;27;20437;-79
2023/11/19 05:50:24;;;;;;;1.93;0.90;;;6.20;99.90;;;;;;4242931;27;20450;-79
2023/11/19 05:52:28;;;;;;;1.50;0.80;;;6.30;99.90;;;;;;4240733;27;20513;-80
2023/11/19 05:54:31;;;;;;;1.13;0.83;;;6.30;99.90;;;;;;4245743;27;20943;-80
2023/11/19 05:56:33;;;;;;;1.77;1.07;;;6.30;99.90;;;;;;4249576;27;20994;-80
2023/11/19 05:58:35;;;;;;;1.37;1.00;;;6.30;99.90;;;;;;4245717;27;21059;-80
2023/11/19 06:00:39;;;;;;;3.03;1.17;;;6.40;99.90;;;;;;4247831;27;20693;-80
2023/11/19 06:02:41;;;;;;;2.20;1.20;;;6.30;99.90;;;;;;4246275;27;21123;-80
2023/11/19 06:04:44;;;;;;;1.57;0.90;;;6.40;99.90;;;;;;4245023;27;21001;-80
2023/11/19 06:06:54;;;;;;;1.20;0.80;;;6.30;99.90;;;;;;4240751;28;20457;-80
2023/11/19 06:08:56;;;;;;;1.30;0.90;;;6.40;99.90;;;;;;4220279;28;20301;-80
2023/11/19 06:11:00;;;;;;;2.07;0.90;;;6.40;99.90;;;;;;4241862;27;20441;-80
2023/11/19 06:13:05;;;;;;;2.73;0.70;;;6.40;99.90;;;;;;4236570;28;20531;-79
2023/11/19 06:15:08;;;;;;;3.70;0.70;;;6.40;99.90;;;;;;4241009;27;20489;-79
2023/11/19 06:17:12;;;;;;;1.63;0.70;;;6.50;99.90;;;;;;4233833;27;20489;-79
2023/11/19 06:19:14;;;;;;;0.70;0.70;;;6.50;99.90;;;;;;4236171;28;20816;-79
2023/11/19 06:21:15;;;;;;;1.17;0.60;;;6.50;99.90;;;;;;4241208;27;20453;-79
2023/11/19 06:23:16;;;;;;;1.20;0.50;;;6.60;99.90;;;;;;4244065;27;20452;-80
2023/11/19 06:25:18;;;;;;;0.87;0.50;;;6.60;99.90;;;;;;4246381;27;20216;-80
2023/11/19 06:27:20;;;;;;;0.80;0.60;;;6.60;99.90;;;;;;4246347;27;21040;-79
2023/11/19 06:29:22;;;;;;;1.20;0.50;;;6.70;99.90;;;;;;4243900;27;20561;-80
2023/11/19 06:31:24;;;;;;;1.20;0.50;;;6.70;99.90;;;;;;4248414;27;20442;-80
2023/11/19 06:33:27;;;;;;;1.87;0.67;;;6.70;99.90;;;;;;4247574;27;20208;-80
2023/11/19 06:35:35;;;;;;;0.67;0.53;;;6.70;99.90;;;;;;4238369;27;20283;-80
2023/11/19 06:37:40;;;;;;;0.53;0.50;;;6.70;99.90;;;;;;4241593;27;20499;-80
2023/11/19 06:39:42;;;;;;;0.60;0.50;;;6.80;99.90;;;;;;4222767;27;20246;-80
2023/11/19 06:41:46;;;;;;;2.67;0.60;;;6.80;99.90;;;;;;4249031;27;20885;-80
2023/11/19 06:43:48;;;;;;;1.60;0.50;;;6.80;99.90;;;;;;4241122;27;20275;-80
2023/11/19 06:45:50;;;;;;;1.23;0.50;;;6.80;99.90;;;;;;4243267;27;20450;-80
2023/11/19 06:47:52;;;;;;;2.00;0.50;;;6.80;99.90;;;;;;4228573;28;20216;-80
2023/11/19 06:49:56;;;;;;;0.60;0.50;;;6.80;99.90;;;;;;4241907;27;20584;-80
2023/11/19 06:51:57;;;;;;;2.47;0.67;;;6.80;99.90;;;;;;4248708;27;20799;-80
2023/11/19 06:53:59;;;;;;;0.50;0.50;;;6.80;99.90;;;;;;4244054;27;20249;-80
2023/11/19 06:56:02;;;;;;;0.50;0.50;;;6.80;99.90;;;;;;4242383;27;20232;-81
2023/11/19 06:58:04;;;;;;;0.70;0.60;;;6.80;99.90;;;;;;4243858;27;20476;-80
2023/11/19 07:00:08;;;;;;;2.10;0.90;;;6.80;99.90;;;;;;4248688;27;20955;-80
2023/11/19 07:02:10;;;;;;;0.90;0.70;;;6.80;99.90;;;;;;4243893;27;20206;-80
2023/11/19 07:04:12;;;;;;;2.43;0.80;;;6.80;99.90;;;;;;4247429;27;20448;-80
2023/11/19 07:06:15;;;;;;;1.10;0.80;;;6.70;99.90;;;;;;4247659;27;20228;-80
2023/11/19 07:08:17;;;;;;;2.27;0.80;;;6.80;99.90;;;;;;4243279;27;20616;-80
2023/11/19 07:10:19;;;;;;;0.80;0.57;;;6.80;99.90;;;;;;4243539;27;20274;-79
2023/11/19 07:12:21;;;;;;;2.30;1.00;;;6.80;99.90;;;;;;4242558;27;20195;-80
2023/11/19 07:14:23;;;;;;;1.40;0.70;;;6.80;99.90;;;;;;4239013;27;20437;-80
2023/11/19 07:16:25;;;;;;;2.07;0.60;;;6.90;99.90;;;;;;4241820;27;20228;-81
2023/11/19 07:18:27;;;;;;;1.23;0.70;;;7.10;99.90;;;;;;4239719;27;20220;-82
2023/11/19 07:20:29;;;;;;;0.83;0.63;;;7.00;99.90;;;;;;4237296;27;20223;-81
2023/11/19 07:22:32;;;;;;;1.93;0.70;;;7.00;99.90;;;;;;4239525;27;20269;-81
2023/11/19 07:24:34;;;;;;;1.20;0.70;;;7.00;99.90;;;;;;4239104;27;20197;-81
2023/11/19 07:26:37;;;;;;;1.70;0.87;;;7.00;99.90;;;;;;4239513;27;20223;-80
2023/11/19 07:28:39;;;;;;;0.87;0.80;;;7.00;99.90;;;;;;4244531;27;20260;-81
2023/11/19 07:30:43;;;;;;;1.00;0.73;;;7.10;99.90;;;;;;4237140;27;20268;-80
2023/11/19 07:32:45;;;;;;;0.70;0.70;;;7.10;99.90;;;;;;4239771;27;20261;-81
2023/11/19 07:34:47;;;;;;;1.37;0.80;;;7.10;99.90;;;;;;4243865;27;20207;-81
2023/11/19 07:36:48;;;;;;;1.17;0.87;;;7.10;99.90;;;;;;4243815;27;20287;-81
2023/11/19 07:38:52;;;;;;;4.40;0.70;;;7.30;99.90;;;;;;4240261;27;20208;-80
2023/11/19 07:40:53;;;;;;;0.97;0.70;;;7.30;99.90;;;;;;4237111;27;20234;-80
2023/11/19 07:42:55;;;;;;;1.17;0.73;;;7.40;99.90;;;;;;4241821;27;20215;-81
2023/11/19 07:44:57;;;;;;;1.10;0.70;;;7.40;99.90;;;;;;4241584;27;20773;-81
2023/11/19 07:46:59;;;;;;;0.63;0.63;;;7.50;99.90;;;;;;4239703;27;20228;-81
2023/11/19 07:49:02;;;;;;;1.43;0.80;;;7.50;99.90;;;;;;4238452;27;20253;-80
2023/11/19 07:51:04;;;;;;;1.10;0.80;;;7.60;99.90;;;;;;4230240;28;20255;-80
2023/11/19 07:53:07;;;;;;;1.20;0.70;;;7.60;99.90;;;;;;4238778;27;20211;-80
2023/11/19 07:55:11;;;;;;;1.00;0.80;;;7.60;99.90;;;;;;4250185;27;20210;-82
2023/11/19 07:57:13;;;;;;;0.90;0.70;;;7.60;99.90;;;;;;4245785;27;20259;-79
2023/11/19 07:59:15;;;;;;;3.70;0.90;;;7.70;99.90;;;;;;4243197;27;20216;-79
2023/11/19 08:01:17;;;;;;;0.97;0.70;;;7.80;99.90;;;;;;4246119;27;20219;-79
2023/11/19 08:03:19;;;;;;;1.93;0.67;;;7.80;99.90;;;;;;4247915;27;20297;-79
2023/11/19 08:05:23;;;;;;;0.97;0.70;;;7.80;99.90;;;;;;4245114;27;20232;-79
2023/11/19 08:07:25;;;;;;;3.03;1.00;;;7.80;99.90;;;;;;4239845;27;20737;-79
2023/11/19 08:09:27;;;;;;;1.30;0.80;;;7.80;99.90;;;;;;4238514;27;20282;-80
2023/11/19 08:11:31;;;;;;;1.50;1.17;;;7.90;99.90;;;;;;4247291;27;20628;-80
2023/11/19 08:13:32;;;;;;;2.30;1.30;;;7.90;99.90;;;;;;4222670;28;20205;-79
2023/11/19 08:15:34;;;;;;;1.37;1.10;;;7.90;99.90;;;;;;4231632;27;20648;-79
2023/11/19 08:17:35;;;;;;;1.63;0.90;;;8.00;99.90;;;;;;4244769;27;20337;-81
2023/11/19 08:19:37;;;;;;;1.70;0.90;;;8.00;99.90;;;;;;4241613;27;20320;-80
2023/11/19 08:21:39;;;;;;;3.23;1.57;;;8.00;99.90;;;;;;4239278;27;20201;-80
2023/11/19 08:23:41;;;;;;;5.70;1.57;;;8.10;99.90;;;;;;4246166;27;20790;-81
2023/11/19 08:25:42;;;;;;;3.57;1.00;;;8.10;99.90;;;;;;4251285;27;20224;-81
2023/11/19 08:27:47;;;;;;;3.37;0.80;;;8.10;99.90;;;;;;4246927;27;20213;-80
2023/11/19 08:29:49;;;;;;;2.90;1.00;;;8.20;99.90;;;;;;4246037;27;20205;-81
2023/11/19 08:31:51;;;;;;;2.37;0.90;;;8.20;99.90;;;;;;4243971;27;20208;-80
2023/11/19 08:33:53;;;;;;;0.90;0.87;;;8.30;99.90;;;;;;4236053;27;20205;-80
2023/11/19 08:35:55;;;;;;;2.17;1.00;;;8.30;99.90;;;;;;4238526;27;20213;-81
2023/11/19 08:37:57;;;;;;;2.37;0.90;;;8.30;99.90;;;;;;4243862;27;20228;-81
2023/11/19 08:39:58;;;;;;;3.13;1.07;;;8.30;99.90;;;;;;4233712;27;20224;-82
2023/11/19 08:42:02;;;;;;;1.67;1.00;;;8.30;99.90;;;;;;4244605;27;20283;-80
2023/11/19 08:44:06;;;;;;;2.00;0.80;;;8.70;99.90;;;;;;4238047;27;20203;-80
2023/11/19 08:46:11;;;;;;;1.43;0.80;;;8.40;99.90;;;;;;4238753;27;20258;-81
2023/11/19 08:48:13;;;;;;;2.37;1.07;;;8.40;99.90;;;;;;4237080;27;20224;-81
2023/11/19 08:50:14;;;;;;;4.27;1.00;;;8.40;99.90;;;;;;4239474;27;20196;-80
2023/11/19 08:52:17;;;;;;;2.20;1.10;;;8.40;99.90;;;;;;4237265;27;20197;-80
2023/11/19 08:54:20;;;;;;;2.63;1.10;;;8.50;99.90;;;;;;4235811;27;20209;-81
2023/11/19 08:56:22;;;;;;;5.43;1.33;;;8.60;99.90;;;;;;4234336;27;20229;-81
2023/11/19 08:58:23;;;;;;;3.30;1.90;;;8.60;99.90;;;;;;4242976;27;20265;-81
2023/11/19 09:00:27;;;;;;;8.57;1.63;;;8.60;99.90;;;;;;4242793;27;20234;-81
2023/11/19 09:02:29;;;;;;;3.70;1.47;;;8.60;99.90;;;;;;4234207;27;20774;-80
2023/11/19 09:04:31;;;;;;;3.13;1.53;;;8.70;99.90;;;;;;4238594;27;20202;-80
2023/11/19 09:06:31;;;;;;;4.93;1.70;;;8.70;99.90;;;;;;4238002;27;20228;-80
2023/11/19 09:08:33;;;;;;;6.70;1.77;;;8.70;99.90;;;;;;4237337;27;20204;-81
2023/11/19 09:10:35;;;;;;;3.07;1.37;;;8.70;99.90;;;;;;4245698;27;20201;-81
2023/11/19 09:12:37;;;;;;;2.87;1.10;;;8.70;99.90;;;;;;4243479;27;20219;-80
2023/11/19 09:14:39;;;;;;;4.00;1.30;;;8.70;99.90;;;;;;4240919;27;20285;-80
2023/11/19 09:16:43;;;;;;;4.30;1.13;;;8.80;99.90;;;;;;4237838;27;20230;-82
2023/11/19 09:18:45;;;;;;;2.87;1.20;;;8.80;99.90;;;;;;4238278;27;20209;-81
2023/11/19 09:20:46;;;;;;;5.37;1.40;;;8.80;99.90;;;;;;4245074;27;20230;-80
2023/11/19 09:22:48;;;;;;;2.33;1.40;;;8.80;99.90;;;;;;4242797;27;20203;-81
2023/11/19 09:24:49;;;;;;;3.03;1.20;;;8.90;99.90;;;;;;4246379;27;20705;-81
2023/11/19 09:26:51;;;;;;;4.13;1.30;;;8.90;99.90;;;;;;4243203;27;20231;-81
2023/11/19 09:28:53;;;;;;;5.77;1.37;;;9.00;99.90;;;;;;4240893;27;20544;-81
2023/11/19 09:30:55;;;;;;;2.60;1.10;;;9.00;99.90;;;;;;4244999;27;20259;-80
2023/11/19 09:32:59;;;;;;;4.23;1.73;;;9.10;99.90;;;;;;4246318;27;20229;-81
2023/11/19 09:35:03;;;;;;;7.13;2.60;;;9.10;99.90;;;;;;4243518;27;20214;-81
2023/11/19 09:37:05;;;;;;;4.67;1.93;;;9.10;99.90;;;;;;4240808;27;20245;-81
2023/11/19 09:39:08;;;;;;;3.50;2.20;;;9.20;99.90;;;;;;4246468;27;20219;-81
2023/11/19 09:41:12;;;;;;;6.20;1.97;;;9.20;99.90;;;;;;4245818;27;20300;-81
2023/11/19 09:43:16;;;;;;;9.27;3.37;;;9.20;99.90;;;;;;4246855;27;20218;-81
2023/11/19 09:45:18;;;;;;;5.90;2.03;;;9.20;99.90;;;;;;4243689;27;20272;-80
2023/11/19 09:47:21;;;;;;;6.87;2.03;;;9.30;99.90;;;;;;4244048;27;20242;-83
2023/11/19 09:49:27;;;;;;;3.17;1.57;;;9.30;99.90;;;;;;4241312;27;20195;-83
2023/11/19 09:51:29;;;;;;;4.20;1.40;;;9.30;99.90;;;;;;4239321;27;20297;-82
2023/11/19 09:53:31;;;;;;;7.90;1.73;;;9.40;99.90;;;;;;4241124;27;20717;-85
2023/11/19 09:55:33;;;;;;;2.67;1.30;;;9.40;99.90;;;;;;4239421;27;20208;-85
2023/11/19 09:57:36;;;;;;;2.37;1.20;;;9.40;99.90;;;;;;4242117;27;20219;-85
2023/11/19 09:59:39;;;;;;;3.60;1.80;;;9.50;99.90;;;;;;4245268;27;20212;-87
2023/11/19 10:01:42;;;;;;;3.03;1.27;;;9.60;99.90;;;;;;4232432;27;20207;-86
2023/11/19 10:03:47;;;;;;;2.97;1.50;;;9.50;99.90;;;;;;4235512;27;20264;-81
2023/11/19 10:05:49;;;;;;;8.90;1.87;;;9.50;99.90;;;;;;4221181;27;20215;-85
2023/11/19 10:07:52;;;;;;;8.50;1.80;;;9.60;99.90;;;;;;4242462;28;20237;-86
2023/11/19 10:09:54;;;;;;;7.33;1.87;;;9.60;99.90;;;;;;4236435;28;20200;-82
2023/11/19 10:11:56;;;;;;;4.17;1.90;;;9.60;99.90;;;;;;4241704;27;20206;-80
2023/11/19 10:13:58;;;;;;;4.73;1.80;;;9.60;99.90;;;;;;4246367;27;20215;-86
2023/11/19 10:16:04;;;;;;;8.13;1.93;;;9.70;99.90;;;;;;4250262;27;20211;-80
2023/11/19 10:18:06;;;;;;;5.53;1.63;;;9.60;99.90;;;;;;4244280;27;20208;-86
2023/11/19 10:20:10;;;;;;;4.57;1.90;;;9.60;99.90;;;;;;4243521;28;20238;-86
2023/11/19 10:22:16;;;;;;;3.90;1.80;;;9.60;99.90;;;;;;4245879;28;20269;-86
2023/11/19 10:24:33;;;;;;;4.80;1.43;;;9.70;99.90;;;;;;4241030;28;20207;-83
2023/11/19 10:26:37;;;;;;;5.10;1.60;;;10.00;99.90;;;;;;4240103;28;20935;-85
2023/11/19 10:28:43;;;;;;;3.43;1.43;;;10.00;99.90;;;;;;4243078;27;20666;-85
2023/11/19 10:30:45;;;;;;;6.10;1.60;;;9.70;99.90;;;;;;4252932;27;20194;-85
2023/11/19 10:32:47;;;;;;;3.17;1.50;;;9.70;99.90;;;;;;4237656;28;20249;-85
2023/11/19 10:34:49;;;;;;;2.37;1.30;;;10.00;99.90;;;;;;4244496;27;20218;-85
2023/11/19 10:36:51;;;;;;;6.00;1.73;;;9.80;99.90;;;;;;4247788;27;20712;-83
2023/11/19 10:38:56;;;;;;;6.80;1.83;;;9.90;99.90;;;;;;4242791;27;20202;-79
2023/11/19 10:40:58;;;;;;;5.07;1.83;;;9.90;99.90;;;;;;4241678;27;20222;-84
2023/11/19 10:43:03;;;;;;;4.83;1.40;;;10.00;99.90;;;;;;4239112;27;20277;-85
2023/11/19 10:45:05;;;;;;;4.03;1.70;;;10.50;99.90;;;;;;4235306;28;20289;-86
2023/11/19 10:47:10;;;;;;;8.23;1.60;;;10.10;99.90;;;;;;4239447;27;20224;-81